Time;durP1;ratioP1;P1;durP2;ratioP2;P2;SDS_P1;SDS_P2;PMS_P1;PMS_P2;Temp;Humidity;BMP_temperature;BMP_pressure;BME280_temperature;BME280_humidity;BME280_pressure;Samples;Min_cycle;Max_cycle;Signal;HPM_P1;HPM_P2
2021/07/17 00:00:41;;;;;;;0.17;0.17;;;20.80;99.90;;;;;;4993602;28;20615;-94
2021/07/17 00:03:13;;;;;;;0.30;0.20;;;21.10;99.90;;;;;;4998395;28;20211;-95
2021/07/17 00:05:45;;;;;;;0.30;0.20;;;21.30;99.90;;;;;;4993648;28;20694;-94
2021/07/17 00:08:20;;;;;;;0.83;0.30;;;21.50;99.90;;;;;;4997935;28;20675;-94
2021/07/17 00:10:52;;;;;;;0.20;0.20;;;21.70;99.90;;;;;;4996885;28;20655;-95
2021/07/17 00:13:24;;;;;;;0.27;0.27;;;21.70;99.90;;;;;;4997679;28;20249;-94
2021/07/17 00:15:56;;;;;;;0.20;0.20;;;21.40;99.90;;;;;;4997729;28;20715;-95
2021/07/17 00:18:27;;;;;;;0.17;0.17;;;21.70;99.90;;;;;;4997837;28;20263;-95
2021/07/17 00:20:59;;;;;;;0.40;0.40;;;21.60;99.90;;;;;;4999298;28;20260;-95
2021/07/17 00:23:32;;;;;;;0.33;0.33;;;21.60;99.90;;;;;;4987235;28;20242;-94
2021/07/17 00:26:04;;;;;;;0.97;0.30;;;21.40;99.90;;;;;;4993774;28;20207;-95
2021/07/17 00:28:36;;;;;;;0.67;0.10;;;21.50;99.90;;;;;;4983183;28;20227;-90
2021/07/17 00:31:06;;;;;;;2.03;1.53;;;21.50;99.90;;;;;;5014500;28;20201;-94
2021/07/17 00:33:38;;;;;;;1.50;0.20;;;21.80;99.90;;;;;;5015506;28;20194;-95
2021/07/17 00:36:10;;;;;;;0.30;0.30;;;21.90;99.90;;;;;;4666693;28;9999941;-95
2021/07/17 00:38:44;;;;;;;1.40;0.30;;;22.00;99.90;;;;;;5004648;28;20237;-94
2021/07/17 00:41:16;;;;;;;0.83;0.40;;;22.40;99.90;;;;;;5002643;28;20198;-95
2021/07/17 00:43:47;;;;;;;1.30;0.20;;;22.50;99.90;;;;;;5019087;28;20202;-96
2021/07/17 00:46:19;;;;;;;0.80;0.20;;;22.60;99.90;;;;;;5015375;28;20210;-96
2021/07/17 00:48:50;;;;;;;0.30;0.30;;;22.80;99.90;;;;;;5001023;28;20224;-96
2021/07/17 00:51:25;;;;;;;0.30;0.20;;;22.50;99.90;;;;;;4994784;28;20213;-96
2021/07/17 00:54:01;;;;;;;0.73;0.23;;;21.60;99.90;;;;;;4989611;28;20226;-94
2021/07/17 00:56:33;;;;;;;0.50;0.30;;;21.50;99.90;;;;;;4999790;28;20304;-94
2021/07/17 00:59:08;;;;;;;0.70;0.30;;;21.50;99.90;;;;;;4995819;28;20229;-95
2021/07/17 01:01:39;;;;;;;0.30;0.30;;;21.50;99.90;;;;;;4988337;28;20213;-91
2021/07/17 01:04:11;;;;;;;0.57;0.40;;;21.50;99.90;;;;;;4993637;28;20222;-94
2021/07/17 01:06:45;;;;;;;0.20;0.20;;;21.50;99.90;;;;;;5011114;28;20279;-92
2021/07/17 01:09:21;;;;;;;0.20;0.20;;;21.50;99.90;;;;;;5012931;28;20660;-96
2021/07/17 01:11:56;;;;;;;0.30;0.30;;;21.20;99.90;;;;;;4999271;28;20248;-94
2021/07/17 01:14:28;;;;;;;2.37;0.40;;;21.30;99.90;;;;;;4984838;28;20256;-91
2021/07/17 01:16:59;;;;;;;0.50;0.30;;;21.30;99.90;;;;;;4997816;28;20272;-95
2021/07/17 01:19:31;;;;;;;0.20;0.20;;;21.60;99.90;;;;;;4997020;28;20277;-94
2021/07/17 01:22:05;;;;;;;1.10;0.40;;;21.50;99.90;;;;;;4969329;28;20294;-94
2021/07/17 01:24:37;;;;;;;0.80;0.40;;;21.20;99.90;;;;;;4992101;28;20237;-95
2021/07/17 01:27:09;;;;;;;2.00;0.80;;;20.90;99.90;;;;;;5004840;28;20237;-96
2021/07/17 01:29:41;;;;;;;1.00;0.33;;;20.80;99.90;;;;;;5003457;28;20271;-94
2021/07/17 01:32:21;;;;;;;0.50;0.40;;;20.90;99.90;;;;;;5016095;28;20214;-95
2021/07/17 01:34:57;;;;;;;0.70;0.40;;;21.00;99.90;;;;;;5016218;28;20217;-96
2021/07/17 01:37:30;;;;;;;0.33;0.30;;;20.80;99.90;;;;;;4986958;28;20213;-96
2021/07/17 01:40:04;;;;;;;0.60;0.30;;;20.80;99.90;;;;;;4992132;28;20229;-95
2021/07/17 01:42:37;;;;;;;1.80;0.30;;;20.90;99.90;;;;;;4985157;28;20276;-96
2021/07/17 01:45:10;;;;;;;0.50;0.37;;;20.70;99.90;;;;;;5021557;28;20218;-94
2021/07/17 01:47:41;;;;;;;0.30;0.20;;;20.60;99.90;;;;;;4992082;28;20202;-93
2021/07/17 01:50:12;;;;;;;0.40;0.20;;;20.60;99.90;;;;;;5009243;28;20657;-95
2021/07/17 01:52:49;;;;;;;0.20;0.20;;;20.60;99.90;;;;;;5017845;28;20217;-91
2021/07/17 01:55:21;;;;;;;0.70;0.30;;;20.60;99.90;;;;;;5014886;28;20217;-94
2021/07/17 01:57:53;;;;;;;0.50;0.43;;;20.50;99.90;;;;;;5007159;28;20206;-93
2021/07/17 02:00:24;;;;;;;0.80;0.50;;;20.40;99.90;;;;;;5006694;28;20226;-94
2021/07/17 02:02:56;;;;;;;2.13;0.47;;;20.40;99.90;;;;;;4668460;28;10000478;-94
2021/07/17 02:05:28;;;;;;;0.70;0.40;;;20.50;99.90;;;;;;5032468;28;20220;-94
2021/07/17 02:08:00;;;;;;;0.30;0.30;;;20.50;99.90;;;;;;5018196;28;20214;-93
2021/07/17 02:10:33;;;;;;;0.70;0.40;;;20.50;99.90;;;;;;5038369;28;20197;-93
2021/07/17 02:13:06;;;;;;;0.70;0.50;;;20.60;99.90;;;;;;5027593;28;20226;-93
2021/07/17 02:15:43;;;;;;;0.70;0.53;;;20.50;99.90;;;;;;5013051;28;20625;-94
2021/07/17 02:18:20;;;;;;;1.37;0.67;;;20.40;99.90;;;;;;5008292;28;20300;-94
2021/07/17 02:20:53;;;;;;;1.50;0.40;;;20.30;99.90;;;;;;5017587;28;20233;-95
2021/07/17 02:23:27;;;;;;;0.40;0.40;;;20.30;99.90;;;;;;5010475;28;20644;-95
2021/07/17 02:25:58;;;;;;;0.97;0.57;;;20.30;99.90;;;;;;5004844;28;20653;-95
2021/07/17 02:28:30;;;;;;;1.90;0.50;;;20.30;99.90;;;;;;4991279;28;20230;-95
2021/07/17 02:31:01;;;;;;;0.30;0.30;;;20.30;99.90;;;;;;5007957;28;20242;-94
2021/07/17 02:33:32;;;;;;;0.70;0.50;;;20.30;99.90;;;;;;5016146;28;20213;-95
2021/07/17 02:36:05;;;;;;;1.83;0.60;;;20.20;99.90;;;;;;5019742;28;20210;-94
2021/07/17 02:38:40;;;;;;;2.10;0.63;;;20.20;99.90;;;;;;5018011;28;20202;-93
2021/07/17 02:41:11;;;;;;;0.53;0.53;;;20.10;99.90;;;;;;5016090;28;20241;-94
2021/07/17 02:43:43;;;;;;;1.00;0.60;;;20.20;99.90;;;;;;4999057;28;20272;-94
2021/07/17 02:46:14;;;;;;;1.90;0.40;;;20.10;99.90;;;;;;5002060;28;20260;-94
2021/07/17 02:48:45;;;;;;;0.50;0.50;;;20.10;99.90;;;;;;5000129;28;20757;-92
2021/07/17 02:51:16;;;;;;;0.90;0.60;;;20.10;99.90;;;;;;5024830;28;20201;-94
2021/07/17 02:53:50;;;;;;;1.03;0.60;;;19.90;99.90;;;;;;5020900;28;20804;-94
2021/07/17 02:56:26;;;;;;;0.50;0.43;;;19.90;99.90;;;;;;5001762;28;20218;-93
2021/07/17 02:58:58;;;;;;;0.80;0.60;;;19.70;99.90;;;;;;5001588;28;20226;-93
2021/07/17 03:01:29;;;;;;;0.60;0.60;;;19.70;99.90;;;;;;4966807;28;20266;-94
2021/07/17 03:04:01;;;;;;;0.63;0.63;;;19.70;99.90;;;;;;4985329;28;20719;-95
2021/07/17 03:06:32;;;;;;;0.93;0.60;;;19.60;99.90;;;;;;4981405;28;20214;-95
2021/07/17 03:09:06;;;;;;;0.80;0.63;;;19.50;99.90;;;;;;4980445;28;20210;-94
2021/07/17 03:11:38;;;;;;;2.07;0.60;;;19.60;99.90;;;;;;4981868;28;20214;-95
2021/07/17 03:14:09;;;;;;;0.80;0.50;;;19.60;99.90;;;;;;4980779;28;20624;-95
2021/07/17 03:16:40;;;;;;;0.80;0.60;;;19.40;99.90;;;;;;4979819;28;20639;-95
2021/07/17 03:19:11;;;;;;;1.60;0.40;;;19.40;99.90;;;;;;4979420;28;20634;-95
2021/07/17 03:21:49;;;;;;;0.60;0.60;;;19.30;99.90;;;;;;4985429;28;20733;-95
2021/07/17 03:24:22;;;;;;;1.20;0.40;;;19.30;99.90;;;;;;5000598;28;20206;-95
2021/07/17 03:26:54;;;;;;;0.50;0.50;;;19.30;99.90;;;;;;5000386;28;20210;-96
2021/07/17 03:29:26;;;;;;;1.93;0.30;;;19.30;99.90;;;;;;5002829;28;20276;-95
2021/07/17 03:31:57;;;;;;;1.17;0.40;;;19.30;99.90;;;;;;4999966;28;20276;-95
2021/07/17 03:34:30;;;;;;;2.40;0.50;;;19.30;99.90;;;;;;4999937;28;20663;-94
2021/07/17 03:37:01;;;;;;;1.77;0.57;;;19.20;99.90;;;;;;4989845;28;20242;-95
2021/07/17 03:39:35;;;;;;;2.83;0.60;;;19.10;99.90;;;;;;4981085;28;20238;-95
2021/07/17 03:42:09;;;;;;;0.50;0.50;;;19.10;99.90;;;;;;4980296;28;20237;-95
2021/07/17 03:44:41;;;;;;;1.20;0.70;;;19.00;99.90;;;;;;4981715;28;20215;-92
2021/07/17 03:47:13;;;;;;;2.63;0.57;;;19.10;99.90;;;;;;4980475;28;20235;-93
2021/07/17 03:49:48;;;;;;;1.40;1.00;;;19.10;99.90;;;;;;4982174;28;20241;-94
2021/07/17 03:52:24;;;;;;;0.70;0.50;;;19.00;99.90;;;;;;4980117;28;20237;-94
2021/07/17 03:55:02;;;;;;;0.80;0.70;;;19.00;99.90;;;;;;4981273;28;20340;-94
2021/07/17 03:57:35;;;;;;;1.37;0.50;;;19.10;99.90;;;;;;4985586;28;20215;-93
2021/07/17 04:00:09;;;;;;;0.73;0.50;;;19.00;99.90;;;;;;4982212;28;20289;-94
2021/07/17 04:02:42;;;;;;;0.70;0.60;;;18.90;99.90;;;;;;5002320;28;20234;-94
2021/07/17 04:05:15;;;;;;;1.00;0.60;;;19.00;99.90;;;;;;4998207;28;20226;-93
2021/07/17 04:07:47;;;;;;;1.90;0.70;;;19.10;99.90;;;;;;4978165;28;20235;-93
2021/07/17 04:10:20;;;;;;;0.63;0.63;;;19.10;99.90;;;;;;4977205;28;20214;-93
2021/07/17 04:12:51;;;;;;;1.27;0.50;;;19.00;99.90;;;;;;4978130;28;20219;-95
2021/07/17 04:15:22;;;;;;;0.93;0.80;;;19.00;99.90;;;;;;4977740;28;20261;-94
2021/07/17 04:17:54;;;;;;;1.97;0.50;;;19.00;99.90;;;;;;4960845;28;20271;-93
2021/07/17 04:22:56;;;;;;;1.30;0.50;;;18.90;99.90;;;;;;5016349;28;20229;-94
2021/07/17 04:25:30;;;;;;;0.97;0.70;;;18.90;99.90;;;;;;5017673;28;20738;-93
2021/07/17 04:28:02;;;;;;;0.53;0.40;;;18.90;99.90;;;;;;5016618;28;20220;-94
2021/07/17 04:30:33;;;;;;;1.13;0.77;;;18.90;99.90;;;;;;5029659;22;20582;-95
2021/07/17 04:33:04;;;;;;;0.67;0.50;;;18.90;99.90;;;;;;4997177;28;20246;-93
2021/07/17 04:35:37;;;;;;;0.50;0.40;;;18.80;99.90;;;;;;4997344;28;20293;-93
2021/07/17 04:38:09;;;;;;;0.50;0.50;;;18.80;99.90;;;;;;4980219;28;20297;-93
2021/07/17 04:40:43;;;;;;;0.70;0.63;;;18.70;99.90;;;;;;4996807;28;20262;-93
2021/07/17 04:43:14;;;;;;;1.13;0.80;;;18.80;99.90;;;;;;4997589;28;20210;-93
2021/07/17 04:45:48;;;;;;;0.67;0.57;;;18.70;99.90;;;;;;4997509;28;20221;-92
2021/07/17 04:48:19;;;;;;;0.83;0.67;;;18.70;99.90;;;;;;4996849;28;20206;-93
2021/07/17 04:50:51;;;;;;;0.87;0.60;;;18.70;99.90;;;;;;4997087;28;20216;-93
2021/07/17 04:53:22;;;;;;;2.40;0.53;;;18.70;99.90;;;;;;5002612;28;20214;-93
2021/07/17 04:55:55;;;;;;;1.60;0.57;;;18.70;99.90;;;;;;5000075;28;20205;-93
2021/07/17 04:58:27;;;;;;;0.80;0.70;;;18.70;99.90;;;;;;5001416;28;20217;-92
2021/07/17 05:00:59;;;;;;;1.00;0.60;;;18.60;99.90;;;;;;4982486;28;20233;-93
2021/07/17 05:03:30;;;;;;;3.90;0.70;;;18.60;99.90;;;;;;4985216;28;20262;-93
2021/07/17 05:06:02;;;;;;;3.10;1.50;;;18.50;99.90;;;;;;4988596;28;20231;-92
2021/07/17 05:08:33;;;;;;;1.70;0.60;;;18.50;99.90;;;;;;4981594;28;20195;-93
2021/07/17 05:11:07;;;;;;;0.83;0.70;;;18.40;99.90;;;;;;5000914;28;20195;-95
2021/07/17 05:13:38;;;;;;;1.17;0.73;;;18.40;99.90;;;;;;5025989;28;20200;-95
2021/07/17 05:16:10;;;;;;;0.87;0.77;;;18.30;99.90;;;;;;5014408;28;20245;-94
2021/07/17 05:18:45;;;;;;;1.83;0.70;;;18.20;99.90;;;;;;5012472;28;20236;-95
2021/07/17 05:21:17;;;;;;;1.23;0.90;;;18.10;99.90;;;;;;5012713;28;20249;-96
2021/07/17 05:23:50;;;;;;;1.23;0.77;;;18.10;99.90;;;;;;5007629;28;20210;-96
2021/07/17 05:26:27;;;;;;;2.27;0.80;;;18.00;99.90;;;;;;4988928;28;20221;-96
2021/07/17 05:31:42;;;;;;;1.70;1.00;;;18.00;99.90;;;;;;4996443;28;20234;-96
2021/07/17 05:34:13;;;;;;;1.10;0.70;;;17.90;99.90;;;;;;4997478;28;20264;-96
2021/07/17 05:36:46;;;;;;;0.73;0.73;;;17.80;99.90;;;;;;4998631;28;20269;-95
2021/07/17 05:39:18;;;;;;;1.37;0.70;;;17.80;99.90;;;;;;4998311;28;20202;-95
2021/07/17 05:41:52;;;;;;;0.50;0.50;;;17.80;99.90;;;;;;4996690;28;20304;-95
2021/07/17 05:44:25;;;;;;;0.70;0.70;;;17.80;99.90;;;;;;4997482;28;20206;-95
2021/07/17 05:46:56;;;;;;;1.03;0.80;;;17.70;99.90;;;;;;4998026;28;20210;-95
2021/07/17 05:49:28;;;;;;;0.73;0.70;;;17.70;99.90;;;;;;4998869;28;20224;-95
2021/07/17 05:51:59;;;;;;;1.37;0.87;;;17.70;99.90;;;;;;4984423;28;20201;-96
2021/07/17 05:54:31;;;;;;;1.70;1.00;;;17.60;99.90;;;;;;5016781;28;20236;-95
2021/07/17 05:57:06;;;;;;;1.80;0.90;;;17.60;99.90;;;;;;5018129;28;20220;-94
2021/07/17 05:59:37;;;;;;;3.37;0.90;;;17.60;99.90;;;;;;5009728;28;20261;-95
2021/07/17 06:02:09;;;;;;;1.77;1.00;;;17.50;99.90;;;;;;5009394;28;20332;-95
2021/07/17 06:04:43;;;;;;;2.47;0.90;;;17.40;99.90;;;;;;4999968;28;20651;-95
2021/07/17 06:07:14;;;;;;;2.00;0.97;;;17.40;99.90;;;;;;4996948;28;20246;-95
2021/07/17 06:09:45;;;;;;;1.00;0.90;;;17.40;99.90;;;;;;4997028;28;20248;-95
2021/07/17 06:12:18;;;;;;;1.57;0.90;;;17.40;99.90;;;;;;4996615;28;20229;-96
2021/07/17 06:14:49;;;;;;;1.00;0.90;;;17.30;99.90;;;;;;4997090;28;20234;-95
2021/07/17 06:20:14;;;;;;;1.17;0.80;;;17.20;99.90;;;;;;5008368;28;20203;-96
2021/07/17 06:22:45;;;;;;;1.87;1.03;;;17.10;99.90;;;;;;5009579;28;20250;-96
2021/07/17 06:25:17;;;;;;;1.07;0.80;;;17.10;99.90;;;;;;5011857;28;20314;-96
2021/07/17 06:27:51;;;;;;;0.70;0.60;;;17.00;99.90;;;;;;5002589;28;20198;-96
2021/07/17 06:30:24;;;;;;;1.10;0.63;;;17.00;99.90;;;;;;4997243;28;20222;-96
2021/07/17 06:32:55;;;;;;;0.63;0.63;;;17.00;99.90;;;;;;4998223;28;20222;-96
2021/07/17 06:35:27;;;;;;;0.93;0.80;;;16.90;99.90;;;;;;4997501;28;20234;-96
2021/07/17 06:37:59;;;;;;;0.50;0.50;;;16.90;99.90;;;;;;4998056;28;20219;-96
2021/07/17 06:40:30;;;;;;;1.90;0.93;;;16.80;99.90;;;;;;5009114;28;20229;-95
2021/07/17 06:43:04;;;;;;;2.33;1.00;;;16.80;99.90;;;;;;4996209;28;20240;-94
2021/07/17 06:45:36;;;;;;;0.90;0.70;;;16.70;99.90;;;;;;5015395;28;20625;-95
2021/07/17 06:48:07;;;;;;;1.27;0.70;;;16.70;99.90;;;;;;5015235;28;20209;-96
2021/07/17 06:50:38;;;;;;;1.40;0.83;;;16.60;99.90;;;;;;5016184;28;20202;-95
2021/07/17 06:53:10;;;;;;;2.57;1.00;;;16.60;99.90;;;;;;5007040;28;20202;-94
2021/07/17 06:55:42;;;;;;;0.97;0.83;;;16.50;99.90;;;;;;5000588;28;20285;-94
2021/07/17 06:58:16;;;;;;;0.70;0.70;;;16.50;99.90;;;;;;5000231;28;20695;-95
2021/07/17 07:00:48;;;;;;;0.80;0.80;;;16.50;99.90;;;;;;5001558;28;20249;-96
2021/07/17 07:03:21;;;;;;;1.07;0.93;;;16.50;99.90;;;;;;5002577;28;20244;-95
2021/07/17 07:05:53;;;;;;;1.17;0.83;;;16.50;99.90;;;;;;5003013;28;20203;-96
2021/07/17 07:08:25;;;;;;;1.83;1.20;;;16.40;99.90;;;;;;5003555;28;20206;-96
2021/07/17 07:10:56;;;;;;;1.87;1.07;;;16.40;99.90;;;;;;5005160;28;20210;-95
2021/07/17 07:13:34;;;;;;;1.27;1.03;;;16.40;99.90;;;;;;5003127;28;20206;-96
2021/07/17 07:16:07;;;;;;;1.60;1.20;;;16.40;99.90;;;;;;5005280;28;20217;-96
2021/07/17 07:18:39;;;;;;;1.60;1.17;;;16.40;99.90;;;;;;5013715;28;20190;-96
2021/07/17 07:21:11;;;;;;;1.20;1.00;;;16.30;99.90;;;;;;5008559;28;20202;-96
2021/07/17 07:23:42;;;;;;;1.20;1.10;;;16.30;99.90;;;;;;5022268;28;20229;-96
2021/07/17 07:26:14;;;;;;;2.30;1.13;;;16.30;99.90;;;;;;5018375;28;20201;-96
2021/07/17 07:28:48;;;;;;;1.57;1.00;;;16.20;99.90;;;;;;5039496;28;20340;-95
2021/07/17 07:31:19;;;;;;;1.20;1.10;;;16.20;99.90;;;;;;5027745;28;20209;-96
2021/07/17 07:33:52;;;;;;;1.27;1.17;;;16.10;99.90;;;;;;5369453;22;20263;-92
2021/07/17 07:36:24;;;;;;;1.40;0.90;;;16.10;99.90;;;;;;5043360;28;20297;-96
2021/07/17 07:38:55;;;;;;;1.20;1.10;;;16.00;99.90;;;;;;5059422;28;20193;-95
2021/07/17 07:41:26;;;;;;;2.03;1.20;;;16.00;99.90;;;;;;5054127;28;20205;-96
2021/07/17 07:43:59;;;;;;;1.20;1.10;;;15.90;99.90;;;;;;5040899;28;20228;-95
2021/07/17 07:46:32;;;;;;;1.50;1.07;;;15.90;99.90;;;;;;5040117;28;20205;-95
2021/07/17 07:49:07;;;;;;;1.50;1.10;;;15.90;99.90;;;;;;5039612;28;20217;-94
2021/07/17 07:51:39;;;;;;;1.00;1.00;;;15.80;99.90;;;;;;5020549;28;20236;-95
2021/07/17 07:54:10;;;;;;;1.53;1.03;;;15.80;99.90;;;;;;5041939;28;20709;-95
2021/07/17 07:56:41;;;;;;;1.10;0.80;;;15.70;99.90;;;;;;5059069;28;20677;-95
2021/07/17 07:59:14;;;;;;;1.37;1.00;;;15.70;99.90;;;;;;5056506;28;20239;-94
2021/07/17 08:01:45;;;;;;;1.40;1.27;;;15.70;99.90;;;;;;5040469;28;20223;-94
2021/07/17 08:04:16;;;;;;;1.60;1.13;;;15.70;99.90;;;;;;5057277;28;20243;-94
2021/07/17 08:06:48;;;;;;;1.00;0.90;;;15.70;99.90;;;;;;5052471;28;20203;-94
2021/07/17 08:09:19;;;;;;;1.70;1.10;;;15.60;99.90;;;;;;5037795;28;20621;-93
2021/07/17 08:11:50;;;;;;;1.00;0.90;;;15.60;99.90;;;;;;5036981;28;20259;-94
2021/07/17 08:14:24;;;;;;;1.10;0.97;;;15.60;99.90;;;;;;5019745;28;20224;-95
2021/07/17 08:16:56;;;;;;;1.00;1.00;;;15.60;99.90;;;;;;5038306;28;20233;-95
2021/07/17 08:19:30;;;;;;;1.10;1.00;;;15.50;99.90;;;;;;5038638;28;20259;-95
2021/07/17 08:22:06;;;;;;;1.10;1.00;;;15.50;99.90;;;;;;5037817;28;20219;-95
2021/07/17 08:24:37;;;;;;;1.70;1.13;;;15.40;99.90;;;;;;5037856;28;20224;-95
2021/07/17 08:27:08;;;;;;;4.60;1.03;;;15.40;99.90;;;;;;5039035;28;20229;-95
2021/07/17 08:30:04;;;;;;;1.37;1.27;;;15.30;99.90;;;;;;5038567;28;20272;-96
2021/07/17 08:32:52;;;;;;;1.30;1.20;;;15.20;99.90;;;;;;5038902;28;20291;-95
2021/07/17 08:35:24;;;;;;;2.43;1.60;;;15.20;99.90;;;;;;5037922;28;20355;-96
2021/07/17 08:37:56;;;;;;;2.03;1.20;;;15.20;99.90;;;;;;5039071;28;20207;-95
2021/07/17 08:40:29;;;;;;;1.33;1.20;;;15.00;99.90;;;;;;5038259;28;20201;-95
2021/07/17 08:43:06;;;;;;;1.40;1.30;;;15.00;99.90;;;;;;5054799;28;20292;-95
2021/07/17 08:45:40;;;;;;;1.57;1.37;;;15.00;99.90;;;;;;5058827;28;20254;-95
2021/07/17 08:48:12;;;;;;;2.13;1.57;;;15.00;99.90;;;;;;5057558;28;20266;-95
2021/07/17 08:50:43;;;;;;;1.97;1.63;;;15.00;99.90;;;;;;5056124;28;20224;-95
2021/07/17 08:53:17;;;;;;;1.73;1.47;;;15.00;99.90;;;;;;5017597;28;20233;-95
2021/07/17 08:55:49;;;;;;;1.13;1.07;;;14.90;99.90;;;;;;5017330;28;20634;-94
2021/07/17 08:58:20;;;;;;;3.10;1.27;;;14.90;99.90;;;;;;5016621;28;20282;-94
2021/07/17 09:00:53;;;;;;;1.53;1.43;;;14.90;99.90;;;;;;5015798;28;20240;-94
2021/07/17 09:03:25;;;;;;;1.43;1.33;;;14.90;99.90;;;;;;5001451;28;20221;-94
2021/07/17 09:05:56;;;;;;;1.30;1.13;;;14.90;99.90;;;;;;5023054;28;20213;-94
2021/07/17 09:08:28;;;;;;;1.50;1.40;;;14.90;99.90;;;;;;5058235;28;20625;-95
2021/07/17 09:10:59;;;;;;;1.83;1.30;;;14.90;99.90;;;;;;5052633;28;20208;-94
2021/07/17 09:13:31;;;;;;;1.30;1.20;;;14.90;99.90;;;;;;5036986;28;20611;-95
2021/07/17 09:16:08;;;;;;;1.67;1.40;;;14.90;99.90;;;;;;5040779;28;20219;-95
2021/07/17 09:18:44;;;;;;;1.40;1.30;;;14.90;99.90;;;;;;5051725;28;20204;-95
2021/07/17 09:21:17;;;;;;;1.33;1.23;;;14.80;99.90;;;;;;5038289;28;20212;-95
2021/07/17 09:23:54;;;;;;;1.40;1.30;;;14.80;99.90;;;;;;5037406;28;20243;-95
2021/07/17 09:26:27;;;;;;;1.60;1.50;;;14.80;99.90;;;;;;5005053;28;20231;-95
2021/07/17 09:29:10;;;;;;;1.47;1.30;;;14.70;99.90;;;;;;5037076;28;20224;-95
2021/07/17 09:31:56;;;;;;;1.73;1.10;;;14.70;99.90;;;;;;5036659;28;20682;-95
2021/07/17 09:34:33;;;;;;;3.00;1.57;;;14.70;99.90;;;;;;5019992;28;20270;-95
2021/07/17 09:37:09;;;;;;;2.20;1.40;;;14.70;99.90;;;;;;5039605;28;20220;-95
2021/07/17 09:39:44;;;;;;;2.63;1.30;;;14.60;99.90;;;;;;5037248;28;20258;-95
2021/07/17 09:42:17;;;;;;;1.40;1.30;;;14.60;99.90;;;;;;5037435;28;20205;-95
2021/07/17 09:44:51;;;;;;;1.40;1.30;;;14.60;99.90;;;;;;5036748;28;20248;-96
2021/07/17 09:47:26;;;;;;;1.57;1.20;;;14.60;99.90;;;;;;5046401;28;20208;-93
2021/07/17 09:50:14;;;;;;;2.40;1.40;;;14.60;99.90;;;;;;5056678;28;20196;-94
2021/07/17 09:52:47;;;;;;;1.90;1.20;;;14.60;99.90;;;;;;5041695;28;20236;-95
2021/07/17 09:55:18;;;;;;;2.07;1.30;;;14.60;99.90;;;;;;5041673;28;20295;-94
2021/07/17 09:57:51;;;;;;;1.50;1.40;;;14.60;99.90;;;;;;5039270;28;20270;-94
2021/07/17 10:00:24;;;;;;;1.60;1.37;;;14.60;99.90;;;;;;5040814;28;20232;-95
2021/07/17 10:02:59;;;;;;;2.70;1.60;;;14.60;99.90;;;;;;5068775;28;20200;-93
2021/07/17 10:05:40;;;;;;;1.53;1.27;;;14.60;99.90;;;;;;5071577;28;20220;-93
2021/07/17 10:08:13;;;;;;;2.50;1.50;;;14.50;99.90;;;;;;5045892;28;20201;-94
2021/07/17 10:10:46;;;;;;;2.03;1.30;;;14.50;99.90;;;;;;5021437;28;20207;-94
2021/07/17 10:13:28;;;;;;;1.53;1.37;;;14.50;99.90;;;;;;5037205;28;20197;-94
2021/07/17 10:16:00;;;;;;;1.93;1.53;;;14.50;99.90;;;;;;5036992;28;20235;-95
2021/07/17 10:18:33;;;;;;;1.60;1.50;;;14.40;99.90;;;;;;5038684;28;20238;-96
2021/07/17 10:21:05;;;;;;;1.63;1.30;;;14.40;99.90;;;;;;5041585;28;20222;-94
2021/07/17 10:23:37;;;;;;;1.87;1.43;;;14.40;99.90;;;;;;5057657;28;20196;-94
2021/07/17 10:26:09;;;;;;;1.37;1.20;;;14.30;99.90;;;;;;5067257;28;20338;-95
2021/07/17 10:28:42;;;;;;;1.90;1.33;;;14.40;99.90;;;;;;5060936;28;20215;-95
2021/07/17 10:31:13;;;;;;;2.47;1.40;;;14.40;99.90;;;;;;5047780;28;20216;-95
2021/07/17 10:33:46;;;;;;;1.20;1.10;;;14.50;99.90;;;;;;5040783;28;20292;-95
2021/07/17 10:36:19;;;;;;;1.50;1.40;;;14.50;99.90;;;;;;5042399;28;20292;-94
2021/07/17 10:38:57;;;;;;;1.53;1.43;;;14.50;99.90;;;;;;5041079;28;20332;-95
2021/07/17 10:41:35;;;;;;;1.63;1.40;;;14.50;99.90;;;;;;5056503;28;20200;-95
2021/07/17 10:44:07;;;;;;;2.53;1.50;;;14.50;99.90;;;;;;5040332;28;20323;-95
2021/07/17 10:46:40;;;;;;;1.30;1.20;;;14.50;99.90;;;;;;5040269;28;20257;-94
2021/07/17 10:49:15;;;;;;;1.40;1.20;;;14.50;99.90;;;;;;5059358;28;20236;-93
2021/07/17 10:51:52;;;;;;;1.33;1.23;;;14.50;99.90;;;;;;5038628;28;20239;-93
2021/07/17 10:54:32;;;;;;;2.50;1.53;;;14.50;99.90;;;;;;5039241;28;20209;-94
2021/07/17 10:57:04;;;;;;;2.73;1.53;;;14.50;99.90;;;;;;5039478;28;20212;-94
2021/07/17 10:59:43;;;;;;;1.63;1.43;;;14.40;99.90;;;;;;5038822;28;20251;-94
2021/07/17 11:02:17;;;;;;;2.80;1.60;;;14.40;99.90;;;;;;5038096;28;20216;-93
2021/07/17 11:04:52;;;;;;;1.33;1.23;;;14.40;99.90;;;;;;5051537;28;20250;-93
2021/07/17 11:07:42;;;;;;;2.50;1.60;;;14.40;99.90;;;;;;5063757;28;20295;-94
2021/07/17 11:10:21;;;;;;;1.77;1.67;;;14.40;99.90;;;;;;5050288;28;20585;-93
2021/07/17 11:13:00;;;;;;;1.73;1.40;;;14.40;99.90;;;;;;5037916;28;20263;-93
2021/07/17 11:15:42;;;;;;;1.43;1.33;;;14.40;99.90;;;;;;5040137;28;20288;-94
2021/07/17 11:18:39;;;;;;;1.53;1.43;;;14.40;99.90;;;;;;5059336;28;20278;-95
2021/07/17 11:21:26;;;;;;;1.23;1.17;;;14.30;99.90;;;;;;5046007;28;20300;-95
2021/07/17 11:24:08;;;;;;;2.03;1.40;;;14.30;99.90;;;;;;5056609;28;20212;-95
2021/07/17 11:26:40;;;;;;;2.60;1.53;;;14.30;99.90;;;;;;5050050;28;20211;-95
2021/07/17 11:29:12;;;;;;;1.47;1.37;;;14.30;99.90;;;;;;5039910;28;20236;-95
2021/07/17 11:31:47;;;;;;;2.30;1.50;;;14.20;99.90;;;;;;5045248;28;20284;-95
2021/07/17 11:34:37;;;;;;;3.20;1.30;;;14.20;99.90;;;;;;5051649;28;20541;-95
2021/07/17 11:37:17;;;;;;;1.93;1.43;;;14.20;99.90;;;;;;5041965;28;20300;-96
2021/07/17 11:39:52;;;;;;;1.57;1.40;;;14.30;99.90;;;;;;5060150;28;20292;-96
2021/07/17 11:42:24;;;;;;;2.03;1.17;;;14.40;99.90;;;;;;5052278;28;20196;-96
2021/07/17 11:44:58;;;;;;;1.90;1.40;;;14.40;99.90;;;;;;5046021;28;20243;-96
2021/07/17 11:47:32;;;;;;;3.07;1.33;;;14.40;99.90;;;;;;5058112;28;20208;-96
2021/07/17 11:50:04;;;;;;;1.60;1.50;;;14.40;99.90;;;;;;5056677;28;20234;-93
2021/07/17 11:52:39;;;;;;;1.47;1.30;;;14.40;99.90;;;;;;5057594;28;20232;-94
2021/07/17 11:55:13;;;;;;;2.00;1.50;;;14.50;99.90;;;;;;5058124;28;20621;-95
2021/07/17 11:57:48;;;;;;;1.73;1.20;;;14.50;99.90;;;;;;5045733;28;20209;-93
2021/07/17 12:00:20;;;;;;;1.70;1.43;;;14.50;99.90;;;;;;5039941;28;20204;-93
2021/07/17 12:02:55;;;;;;;1.57;1.27;;;14.40;99.90;;;;;;5044624;28;20200;-92
2021/07/17 12:05:29;;;;;;;2.67;1.47;;;14.40;99.90;;;;;;5058405;28;20270;-93
2021/07/17 12:08:02;;;;;;;1.50;1.40;;;14.40;99.90;;;;;;5058112;28;20228;-94
2021/07/17 12:10:34;;;;;;;2.77;1.20;;;14.40;99.90;;;;;;5057395;28;20204;-95
2021/07/17 12:13:06;;;;;;;3.30;1.30;;;14.50;99.90;;;;;;5056414;28;20195;-94
2021/07/17 12:15:41;;;;;;;3.53;1.50;;;14.50;99.90;;;;;;5070906;28;20197;-95
2021/07/17 12:18:15;;;;;;;1.60;1.20;;;14.50;99.90;;;;;;5071214;28;20230;-95
2021/07/17 12:20:51;;;;;;;1.40;1.20;;;14.50;99.90;;;;;;5071026;28;20281;-95
2021/07/17 12:23:26;;;;;;;2.43;1.33;;;14.50;99.90;;;;;;5068731;28;20216;-95
2021/07/17 12:26:00;;;;;;;1.80;1.30;;;14.50;99.90;;;;;;5057372;28;20239;-95
2021/07/17 12:28:36;;;;;;;1.20;1.10;;;14.50;99.90;;;;;;5047858;28;20212;-95
2021/07/17 12:31:11;;;;;;;3.07;1.33;;;14.50;99.90;;;;;;5041780;28;20205;-95
2021/07/17 12:33:44;;;;;;;2.10;1.23;;;14.50;99.90;;;;;;5042018;28;20212;-92
2021/07/17 12:36:17;;;;;;;2.03;1.13;;;14.50;99.90;;;;;;5039301;28;20205;-94
2021/07/17 12:38:55;;;;;;;1.70;1.30;;;14.50;99.90;;;;;;5038348;28;20205;-95
2021/07/17 12:41:29;;;;;;;2.07;1.43;;;14.50;99.90;;;;;;5038044;28;20271;-95
2021/07/17 12:44:03;;;;;;;1.27;1.17;;;14.50;99.90;;;;;;5038958;28;20316;-95
2021/07/17 12:46:37;;;;;;;1.23;1.07;;;14.60;99.90;;;;;;5039575;28;20279;-94
2021/07/17 12:49:13;;;;;;;1.93;1.40;;;14.60;99.90;;;;;;5038799;28;20223;-94
2021/07/17 12:51:47;;;;;;;2.20;1.17;;;14.60;99.90;;;;;;5021745;28;20268;-94
2021/07/17 12:54:22;;;;;;;2.53;1.10;;;14.60;99.90;;;;;;5058760;28;20204;-94
2021/07/17 12:56:55;;;;;;;3.23;1.10;;;14.70;99.90;;;;;;5077062;28;20206;-95
2021/07/17 12:59:34;;;;;;;3.77;1.20;;;14.60;99.90;;;;;;5058360;28;20209;-94
2021/07/17 13:02:10;;;;;;;1.23;1.03;;;14.70;99.90;;;;;;5057068;28;20196;-94
2021/07/17 13:04:46;;;;;;;1.80;1.20;;;14.80;99.90;;;;;;5056914;28;20219;-93
2021/07/17 13:07:17;;;;;;;1.83;1.00;;;14.80;99.90;;;;;;5055865;28;20246;-93
2021/07/17 13:09:51;;;;;;;1.27;0.90;;;14.90;99.90;;;;;;5054088;28;20216;-94
2021/07/17 13:12:29;;;;;;;1.83;1.07;;;15.00;99.90;;;;;;5036919;28;20236;-94
2021/07/17 13:15:02;;;;;;;2.37;1.10;;;15.00;99.90;;;;;;5037663;28;20232;-95
2021/07/17 13:17:35;;;;;;;1.20;1.10;;;15.00;99.90;;;;;;5037554;28;20236;-95
2021/07/17 13:20:09;;;;;;;1.47;0.80;;;15.00;99.90;;;;;;5037290;28;20277;-96
2021/07/17 13:22:45;;;;;;;1.40;1.30;;;15.00;99.90;;;;;;5037205;28;20204;-96
2021/07/17 13:25:24;;;;;;;2.63;1.60;;;15.00;99.90;;;;;;5038539;28;20236;-96